createdAt,value
2022-11-25T00:02:14.067Z,32.10
2022-11-25T00:04:45.175Z,30.60
2022-11-25T00:07:16.040Z,28.60
2022-11-25T00:09:46.859Z,29.40
2022-11-25T00:12:17.746Z,30.50
2022-11-25T00:14:49.149Z,30.10
2022-11-25T00:17:19.978Z,31.30
2022-11-25T00:19:51.093Z,29.40
2022-11-25T00:22:22.236Z,30.40
2022-11-25T00:24:53.015Z,29.90
2022-11-25T00:27:23.839Z,30.10
2022-11-25T00:29:54.678Z,29.10
2022-11-25T00:32:25.607Z,28.30
2022-11-25T00:34:56.407Z,27.20
2022-11-25T00:37:27.269Z,29.60
2022-11-25T00:39:58.124Z,29.80
2022-11-25T00:42:46.776Z,28.50
2022-11-25T00:45:17.790Z,30.10
2022-11-25T00:47:49.093Z,30.90
2022-11-25T00:50:22.423Z,28.70
2022-11-25T00:52:53.155Z,30.80
2022-11-25T00:55:23.926Z,30.10
2022-11-25T00:57:54.761Z,30.00
2022-11-25T01:00:25.637Z,27.80
2022-11-25T01:02:56.416Z,28.60
2022-11-25T01:05:27.185Z,31.00
2022-11-25T01:07:58.774Z,30.40
2022-11-25T01:10:29.507Z,27.60
2022-11-25T01:13:00.398Z,30.50
2022-11-25T01:15:31.197Z,27.80
2022-11-25T01:18:01.988Z,33.00
2022-11-25T01:20:32.785Z,35.90
2022-11-25T01:23:03.577Z,41.60
2022-11-25T01:25:37.718Z,32.80
2022-11-25T01:28:09.018Z,32.00
2022-11-25T01:30:41.310Z,30.50
2022-11-25T01:33:12.371Z,28.50
2022-11-25T01:35:43.127Z,29.50
2022-11-25T01:38:13.896Z,33.10
2022-11-25T01:40:44.848Z,30.00
2022-11-25T01:43:17.406Z,29.90
2022-11-25T01:45:48.624Z,29.20
2022-11-25T01:48:23.327Z,30.50
2022-11-25T01:50:55.670Z,28.90
2022-11-25T01:53:26.722Z,30.20
2022-11-25T01:56:02.271Z,31.00
2022-11-25T01:58:38.420Z,33.60
2022-11-25T02:01:10.269Z,30.90
2022-11-25T02:03:46.373Z,30.30
2022-11-25T02:06:22.704Z,31.70
2022-11-25T02:08:57.082Z,46.80
2022-11-25T02:11:31.981Z,41.30
2022-11-25T02:14:03.951Z,41.00
2022-11-25T02:16:35.004Z,41.10
2022-11-25T02:19:10.502Z,36.40
2022-11-25T02:21:46.945Z,29.90
2022-11-25T02:24:24.197Z,32.10
2022-11-25T02:26:55.388Z,29.90
2022-11-25T02:29:26.631Z,30.80
2022-11-25T02:31:57.777Z,32.70
2022-11-25T02:34:28.992Z,29.30
2022-11-25T02:37:00.296Z,30.00
2022-11-25T02:39:31.494Z,29.10
2022-11-25T02:42:02.755Z,30.30
2022-11-25T02:44:34.583Z,30.70
2022-11-25T02:47:05.682Z,31.80
2022-11-25T02:49:36.555Z,32.70
2022-11-25T03:02:59.835Z,31.30
2022-11-25T03:05:30.903Z,32.40
2022-11-25T03:08:03.851Z,29.40
2022-11-25T03:10:35.312Z,29.50
2022-11-25T03:13:08.367Z,28.20
2022-11-25T03:15:43.569Z,29.30
2022-11-25T03:18:14.369Z,26.50
2022-11-25T03:20:45.997Z,31.30
2022-11-25T03:23:16.851Z,28.70
2022-11-25T03:25:47.682Z,29.70
2022-11-25T03:28:18.720Z,30.30
2022-11-25T03:30:49.789Z,29.40
2022-11-25T03:33:20.701Z,28.30
2022-11-25T03:35:52.231Z,29.50
2022-11-25T03:38:24.380Z,28.90
2022-11-25T03:40:55.192Z,28.40
2022-11-25T03:43:26.187Z,29.50
2022-11-25T03:45:57.065Z,29.90
2022-11-25T03:48:28.551Z,28.80
2022-11-25T03:50:59.414Z,28.90
2022-11-25T03:53:31.169Z,27.80
2022-11-25T03:56:04.015Z,28.40
2022-11-25T03:58:34.954Z,30.50
2022-11-25T04:01:07.449Z,28.90
2022-11-25T04:03:38.389Z,29.90
2022-11-25T04:06:09.511Z,30.10
2022-11-25T04:08:40.486Z,28.40
2022-11-25T04:11:12.122Z,28.60
2022-11-25T04:13:46.115Z,28.50
2022-11-25T04:16:24.627Z,28.50
2022-11-25T04:18:55.918Z,27.80
2022-11-25T04:21:27.501Z,29.90
2022-11-25T04:23:58.301Z,29.20
2022-11-25T04:26:29.228Z,29.60
2022-11-25T04:29:00.061Z,28.90
2022-11-25T04:31:31.539Z,30.20
2022-11-25T04:34:02.958Z,32.00
2022-11-25T04:36:34.300Z,35.50
2022-11-25T04:39:05.811Z,31.20
2022-11-25T04:41:37.728Z,31.20
2022-11-25T04:44:08.683Z,28.60
2022-11-25T04:46:44.198Z,28.20
2022-11-25T04:49:15.222Z,31.10
2022-11-25T04:51:46.104Z,30.70
2022-11-25T04:54:17.747Z,26.50
2022-11-25T04:56:49.155Z,29.50
2022-11-25T04:59:38.460Z,28.40
2022-11-25T05:02:13.441Z,29.90
2022-11-25T05:04:47.584Z,27.90
2022-11-25T05:07:24.106Z,30.50
2022-11-25T05:09:57.421Z,29.30
2022-11-25T05:12:41.298Z,29.60
2022-11-25T05:15:16.613Z,28.10
2022-11-25T05:17:49.821Z,28.50
2022-11-25T05:20:24.369Z,28.70
2022-11-25T05:22:55.274Z,28.20
2022-11-25T05:25:27.483Z,26.30
2022-11-25T05:28:26.626Z,27.70
2022-11-25T05:30:57.919Z,28.30
2022-11-25T05:33:29.251Z,27.60
2022-11-25T05:36:02.628Z,27.80
2022-11-25T05:38:45.670Z,30.10
2022-11-25T05:41:20.329Z,27.60
2022-11-25T05:43:51.823Z,25.60
2022-11-25T05:46:22.937Z,27.50
2022-11-25T05:48:57.630Z,25.80
2022-11-25T05:51:30.702Z,26.80
2022-11-25T05:54:03.559Z,24.90
2022-11-25T05:56:34.827Z,26.60
2022-11-25T05:59:24.539Z,26.60
2022-11-25T06:02:15.622Z,28.90
2022-11-25T06:04:46.669Z,27.00
2022-11-25T06:07:17.597Z,26.60
2022-11-25T06:09:49.327Z,26.50
2022-11-25T06:12:21.955Z,25.60
2022-11-25T06:14:53.732Z,27.30
2022-11-25T06:17:24.539Z,25.40
2022-11-25T06:20:03.490Z,24.70
2022-11-25T06:22:34.820Z,26.20
2022-11-25T06:25:06.348Z,24.60
2022-11-25T06:27:57.280Z,24.90
2022-11-25T06:30:29.203Z,25.50
2022-11-25T06:33:18.436Z,26.20
2022-11-25T06:35:52.293Z,25.40
2022-11-25T06:38:23.148Z,23.00
2022-11-25T06:40:56.434Z,21.10
2022-11-25T06:43:30.976Z,25.10
2022-11-25T06:46:07.761Z,25.60
2022-11-25T06:48:39.525Z,25.10
2022-11-25T06:51:13.435Z,23.60
2022-11-25T06:53:44.528Z,25.00
2022-11-25T06:56:18.338Z,27.30
2022-11-25T06:58:50.354Z,25.10
2022-11-25T07:01:23.927Z,26.20
2022-11-25T07:03:57.577Z,26.30
2022-11-25T07:06:28.954Z,25.90
2022-11-25T07:09:00.489Z,25.80
2022-11-25T07:11:33.224Z,25.80
2022-11-25T07:14:06.786Z,27.00
2022-11-25T07:16:38.707Z,26.20
2022-11-25T07:19:11.302Z,26.70
2022-11-25T07:21:43.507Z,29.60
2022-11-25T07:24:16.564Z,28.20
2022-11-25T07:26:48.411Z,29.20
2022-11-25T07:32:13.304Z,28.80
2022-11-25T07:34:44.500Z,29.30
2022-11-25T07:37:15.910Z,30.60
2022-11-25T07:39:46.761Z,28.60
2022-11-25T07:42:17.889Z,29.50
2022-11-25T07:44:49.821Z,30.60
2022-11-25T07:47:44.857Z,32.10
2022-11-25T07:50:16.351Z,30.00
2022-11-25T07:52:50.505Z,29.70
2022-11-25T07:55:21.591Z,31.20
2022-11-25T07:57:52.490Z,31.80
2022-11-25T08:00:24.711Z,31.40
2022-11-25T08:02:57.004Z,30.40
2022-11-25T08:05:27.885Z,31.20
2022-11-25T08:07:58.882Z,31.80
2022-11-25T08:10:29.842Z,33.90
2022-11-25T08:13:00.802Z,30.40
2022-11-25T08:15:33.249Z,29.90
2022-11-25T08:18:04.173Z,30.90
2022-11-25T08:20:35.091Z,30.70
2022-11-25T08:23:05.909Z,30.60
2022-11-25T08:25:47.437Z,32.00
2022-11-25T08:28:21.400Z,35.90
2022-11-25T08:30:52.616Z,31.30
2022-11-25T08:33:24.000Z,31.70
2022-11-25T08:35:57.308Z,34.70
2022-11-25T08:38:29.189Z,34.40
2022-11-25T08:41:00.612Z,31.50
2022-11-25T08:43:31.847Z,31.30
2022-11-25T08:46:02.798Z,31.10
2022-11-25T08:48:34.165Z,33.70
2022-11-25T08:51:08.073Z,31.40
2022-11-25T08:53:39.566Z,31.60
2022-11-25T08:56:11.476Z,30.90
2022-11-25T08:58:42.941Z,30.90
2022-11-25T09:01:14.231Z,33.30
2022-11-25T09:03:47.839Z,33.10
2022-11-25T09:06:20.282Z,31.80
2022-11-25T09:08:51.241Z,31.60
2022-11-25T09:11:22.274Z,29.70
2022-11-25T09:13:53.336Z,36.40
2022-11-25T09:16:26.832Z,34.40
2022-11-25T09:19:00.145Z,35.50
2022-11-25T09:21:30.970Z,30.40
2022-11-25T09:24:02.443Z,31.90
2022-11-25T09:26:35.854Z,32.60
2022-11-25T09:29:10.087Z,33.30
2022-11-25T09:31:42.124Z,33.60
2022-11-25T09:34:13.239Z,31.80
2022-11-25T09:36:46.416Z,30.20
2022-11-25T09:39:17.279Z,34.40
2022-11-25T09:42:19.594Z,30.00
2022-11-25T09:45:21.877Z,32.60
2022-11-25T09:48:06.374Z,32.00
2022-11-25T09:50:48.807Z,30.90
2022-11-25T09:53:32.312Z,31.20
2022-11-25T09:56:09.701Z,30.40
2022-11-25T09:58:48.000Z,28.90
2022-11-25T10:01:24.089Z,31.30
2022-11-25T10:03:58.897Z,29.40
2022-11-25T10:06:33.494Z,30.50
2022-11-25T10:09:12.761Z,32.20
2022-11-25T10:11:52.057Z,29.50
2022-11-25T10:14:31.290Z,30.80
2022-11-25T10:17:12.771Z,29.00
2022-11-25T10:19:55.328Z,29.60
2022-11-25T10:22:30.994Z,28.30
2022-11-25T10:25:04.816Z,29.90
2022-11-25T10:27:54.272Z,31.10
2022-11-25T10:30:27.154Z,31.50
2022-11-25T10:33:07.672Z,29.50
2022-11-25T10:35:42.654Z,31.20
2022-11-25T10:38:21.109Z,31.40
2022-11-25T10:40:53.732Z,32.10
2022-11-25T10:43:28.701Z,33.20
2022-11-25T10:46:15.898Z,31.10
2022-11-25T10:49:01.051Z,33.10
2022-11-25T10:51:44.684Z,31.50
2022-11-25T10:54:27.218Z,32.60
2022-11-25T10:57:00.818Z,35.40
2022-11-25T10:59:37.785Z,35.10
2022-11-25T11:02:22.412Z,34.20
2022-11-25T11:05:00.493Z,32.60
2022-11-25T11:07:37.361Z,34.80
2022-11-25T11:10:19.075Z,44.60
2022-11-25T11:13:10.970Z,32.40
2022-11-25T11:15:49.568Z,30.80
2022-11-25T11:18:28.687Z,33.70
2022-11-25T11:21:01.719Z,33.50
2022-11-25T11:23:32.666Z,33.70
2022-11-25T11:26:06.393Z,34.50
2022-11-25T11:28:43.471Z,31.80
2022-11-25T11:31:25.237Z,32.30
2022-11-25T11:34:04.871Z,30.00
2022-11-25T11:36:49.697Z,30.20
2022-11-25T11:40:00.293Z,31.10
2022-11-25T11:42:41.568Z,28.70
2022-11-25T11:45:30.765Z,28.50
2022-11-25T11:48:12.450Z,39.40
2022-11-25T11:50:49.511Z,33.20
2022-11-25T11:53:31.598Z,26.30
2022-11-25T11:59:42.676Z,24.90
2022-11-25T12:02:32.735Z,25.80
2022-11-25T12:05:17.068Z,25.70
2022-11-25T12:07:56.097Z,28.40
2022-11-25T12:10:50.424Z,28.40
2022-11-25T12:13:24.439Z,28.80
2022-11-25T12:16:00.133Z,26.70
2022-11-25T12:18:53.931Z,27.10
2022-11-25T12:21:45.392Z,28.00
2022-11-25T12:24:27.320Z,29.00
2022-11-25T12:27:03.761Z,27.40
2022-11-25T12:29:41.052Z,28.40
2022-11-25T12:32:41.541Z,27.50
2022-11-25T12:35:25.389Z,27.80
2022-11-25T12:38:04.072Z,26.70
2022-11-25T12:40:43.756Z,31.30
2022-11-25T12:43:27.289Z,28.00
2022-11-25T12:46:09.185Z,28.90
2022-11-25T12:48:43.172Z,29.20
2022-11-25T12:51:25.847Z,30.70
2022-11-25T12:54:07.087Z,32.30
2022-11-25T12:56:53.672Z,25.20
2022-11-25T12:59:44.717Z,27.20
2022-11-25T13:02:37.053Z,30.60
2022-11-25T13:05:40.427Z,26.90
2022-11-25T13:08:25.429Z,24.90
2022-11-25T13:11:24.132Z,33.20
2022-11-25T13:14:02.087Z,31.10
2022-11-25T13:16:34.964Z,33.10
2022-11-25T13:19:12.602Z,29.80
2022-11-25T13:22:07.660Z,32.70
2022-11-25T13:24:43.540Z,28.60
2022-11-25T13:27:33.017Z,31.80
2022-11-25T13:30:05.385Z,33.70
2022-11-25T13:32:43.036Z,31.10
2022-11-25T13:35:38.158Z,33.40
2022-11-25T13:38:48.492Z,28.10
2022-11-25T13:41:42.085Z,33.30
2022-11-25T13:44:32.299Z,31.70
2022-11-25T13:47:36.453Z,33.40
2022-11-25T13:50:22.756Z,31.30
2022-11-25T13:53:01.803Z,32.80
2022-11-25T13:55:42.662Z,34.10
2022-11-25T13:58:27.282Z,31.60
2022-11-25T14:01:29.397Z,33.40
2022-11-25T14:04:06.638Z,33.90
2022-11-25T14:07:17.031Z,33.50
2022-11-25T14:10:10.741Z,33.90
2022-11-25T14:12:54.747Z,32.60
2022-11-25T14:15:42.069Z,33.70
2022-11-25T14:19:17.319Z,31.80
2022-11-25T14:21:51.703Z,31.50
2022-11-25T14:24:38.390Z,29.00
2022-11-25T14:27:21.859Z,32.40
2022-11-25T14:29:57.866Z,29.40
2022-11-25T14:32:35.391Z,30.80
2022-11-25T14:35:10.340Z,30.20
2022-11-25T14:37:46.977Z,30.90
2022-11-25T14:40:23.091Z,31.50
2022-11-25T14:42:59.592Z,28.20
2022-11-25T14:45:33.555Z,30.60
2022-11-25T14:48:18.332Z,32.10
2022-11-25T14:51:00.860Z,31.00
2022-11-25T14:53:43.009Z,31.00
2022-11-25T14:56:23.183Z,28.50
2022-11-25T14:58:57.016Z,28.50
2022-11-25T15:01:30.030Z,30.80
2022-11-25T15:04:21.252Z,28.90
2022-11-25T15:06:53.990Z,35.60
2022-11-25T15:09:32.593Z,33.50
2022-11-25T15:12:06.903Z,32.20
2022-11-25T15:14:42.892Z,32.30
2022-11-25T15:17:31.033Z,30.90
2022-11-25T15:20:12.660Z,33.50
2022-11-25T15:22:58.345Z,30.90
2022-11-25T15:28:37.232Z,28.20
2022-11-25T15:31:33.189Z,30.30
2022-11-25T15:34:25.787Z,32.30
2022-11-25T15:37:10.397Z,32.40
2022-11-25T15:40:25.447Z,34.30
2022-11-25T15:42:57.648Z,30.80
2022-11-25T15:45:38.218Z,32.00
2022-11-25T15:48:17.971Z,32.70
2022-11-25T15:51:21.215Z,33.30
2022-11-25T15:53:57.889Z,32.60
2022-11-25T15:56:30.160Z,36.20
2022-11-25T15:59:02.343Z,33.20
2022-11-25T16:01:42.837Z,33.40
2022-11-25T16:04:21.556Z,34.00
2022-11-25T16:06:57.825Z,33.60
2022-11-25T16:09:33.483Z,32.60
2022-11-25T16:12:19.879Z,33.80
2022-11-25T16:14:51.029Z,34.60
2022-11-25T16:17:22.239Z,32.60
2022-11-25T16:19:53.320Z,33.60
2022-11-25T16:22:24.627Z,33.90
2022-11-25T16:25:02.132Z,34.50
2022-11-25T16:27:38.525Z,34.20
2022-11-25T16:30:20.954Z,34.10
2022-11-25T16:32:51.965Z,33.20
2022-11-25T16:35:23.722Z,34.30
2022-11-25T16:38:00.255Z,35.10
2022-11-25T16:40:31.569Z,33.50
2022-11-25T16:43:03.774Z,34.80
2022-11-25T16:45:35.055Z,34.50
2022-11-25T16:48:17.418Z,35.00
2022-11-25T16:50:49.400Z,37.10
2022-11-25T16:53:20.914Z,34.70
2022-11-25T16:55:52.286Z,32.80
2022-11-25T16:58:25.347Z,34.50
2022-11-25T17:00:57.709Z,36.30
2022-11-25T17:03:28.851Z,34.50
2022-11-25T17:06:00.091Z,33.80
2022-11-25T17:08:31.504Z,36.40
2022-11-25T17:11:03.219Z,31.70
2022-11-25T17:13:34.482Z,36.90
2022-11-25T17:16:06.772Z,33.60
2022-11-25T17:18:38.839Z,36.10
2022-11-25T17:21:12.804Z,32.80
2022-11-25T17:23:44.568Z,34.60
2022-11-25T17:26:20.249Z,35.50
2022-11-25T17:28:55.973Z,34.80
2022-11-25T17:31:30.234Z,36.80
2022-11-25T17:34:03.932Z,32.60
2022-11-25T17:36:35.116Z,38.20
2022-11-25T17:39:06.206Z,38.00
2022-11-25T17:41:47.166Z,44.60
2022-11-25T17:44:26.651Z,38.40
2022-11-25T17:47:00.201Z,34.60
2022-11-25T17:49:31.288Z,34.00
2022-11-25T17:52:02.483Z,35.20
2022-11-25T17:54:33.511Z,34.50
2022-11-25T17:57:05.370Z,35.80
2022-11-25T17:59:37.676Z,35.20
2022-11-25T18:02:19.817Z,37.20
2022-11-25T18:04:51.228Z,32.00
2022-11-25T18:07:22.643Z,33.80
2022-11-25T18:09:54.046Z,35.30
2022-11-25T18:12:29.257Z,34.80
2022-11-25T18:17:30.085Z,31.80
2022-11-25T18:20:04.189Z,35.80
2022-11-25T18:22:35.084Z,36.30
2022-11-25T18:25:09.502Z,36.90
2022-11-25T18:27:40.945Z,34.30
2022-11-25T18:30:20.152Z,31.00
2022-11-25T18:32:51.669Z,36.20
2022-11-25T18:35:25.355Z,32.80
2022-11-25T18:37:57.040Z,35.00
2022-11-25T18:40:30.186Z,34.60
2022-11-25T18:43:04.079Z,35.20
2022-11-25T18:45:39.076Z,41.40
2022-11-25T18:48:16.964Z,34.80
2022-11-25T18:50:49.952Z,39.00
2022-11-25T18:53:21.116Z,39.50
2022-11-25T18:55:52.575Z,37.20
2022-11-25T18:58:54.941Z,36.00
2022-11-25T19:01:49.450Z,36.10
2022-11-25T19:04:21.313Z,38.90
2022-11-25T19:06:52.534Z,37.00
2022-11-25T19:09:24.936Z,32.40
2022-11-25T19:11:59.200Z,38.80
2022-11-25T19:14:35.125Z,38.00
2022-11-25T19:17:19.603Z,34.70
2022-11-25T19:19:52.722Z,34.30
2022-11-25T19:22:24.815Z,42.60
2022-11-25T19:24:59.330Z,37.10
2022-11-25T19:27:33.572Z,38.80
2022-11-25T19:30:07.293Z,40.70
2022-11-25T19:32:38.800Z,38.00
2022-11-25T19:35:15.731Z,39.10
2022-11-25T19:37:54.389Z,35.90
2022-11-25T19:40:25.912Z,38.50
2022-11-25T19:42:57.292Z,37.50
2022-11-25T19:45:31.989Z,40.10
2022-11-25T19:48:08.005Z,39.60
2022-11-25T19:50:42.124Z,41.40
2022-11-25T19:53:18.369Z,42.40
2022-11-25T19:55:49.948Z,43.10
2022-11-25T19:58:22.098Z,42.90
2022-11-25T20:01:06.499Z,42.20
2022-11-25T20:03:47.812Z,41.50
2022-11-25T20:06:22.249Z,41.50
2022-11-25T20:09:04.855Z,39.50
2022-11-25T20:11:40.955Z,40.50
2022-11-25T20:14:12.452Z,40.00
2022-11-25T20:16:46.215Z,43.20
2022-11-25T20:19:20.670Z,39.10
2022-11-25T20:21:53.777Z,38.60
2022-11-25T20:24:26.721Z,39.90
2022-11-25T20:27:00.335Z,43.40
2022-11-25T20:29:31.274Z,41.70
2022-11-25T20:32:09.990Z,43.20
2022-11-25T20:34:42.432Z,43.70
2022-11-25T20:37:16.245Z,44.50
2022-11-25T20:39:48.864Z,41.70
2022-11-25T20:42:21.591Z,43.50
2022-11-25T20:44:57.842Z,42.90
2022-11-25T20:47:30.286Z,42.50
2022-11-25T20:50:01.582Z,38.10
2022-11-25T20:52:35.122Z,41.80
2022-11-25T20:55:16.627Z,43.50
2022-11-25T20:57:48.634Z,44.70
2022-11-25T21:00:23.075Z,41.50
2022-11-25T21:02:55.418Z,45.60
2022-11-25T21:05:27.631Z,45.70
2022-11-25T21:07:58.582Z,42.80
2022-11-25T21:10:34.780Z,46.40
2022-11-25T21:13:15.265Z,46.20
2022-11-25T21:15:46.583Z,44.00
2022-11-25T21:18:18.075Z,47.00
2022-11-25T21:20:49.842Z,51.20
2022-11-25T21:23:25.404Z,44.30
2022-11-25T21:26:05.183Z,43.30
2022-11-25T21:28:42.107Z,47.10
2022-11-25T21:31:17.806Z,47.40
2022-11-25T21:33:50.279Z,43.30
2022-11-25T21:36:24.965Z,44.20
2022-11-25T21:39:03.452Z,45.10
2022-11-25T21:41:34.832Z,45.80
2022-11-25T21:44:07.697Z,47.10
2022-11-25T21:46:39.138Z,44.10
2022-11-25T21:49:14.287Z,46.60
2022-11-25T21:51:45.370Z,43.90
2022-11-25T21:54:16.267Z,48.80
2022-11-25T21:56:47.667Z,43.00
2022-11-25T21:59:21.619Z,46.80
2022-11-25T22:01:53.108Z,43.70
2022-11-25T22:04:25.087Z,48.40
2022-11-25T22:06:56.317Z,51.80
2022-11-25T22:09:28.038Z,48.20
2022-11-25T22:11:59.474Z,48.10
2022-11-25T22:14:37.101Z,44.20
2022-11-25T22:17:14.628Z,45.90
2022-11-25T22:19:46.386Z,46.60
2022-11-25T22:22:18.108Z,48.20
2022-11-25T22:24:49.093Z,46.50
2022-11-25T22:27:23.713Z,46.30
2022-11-25T22:29:55.690Z,48.60
2022-11-25T22:32:28.320Z,46.60
2022-11-25T22:34:59.810Z,46.60
2022-11-25T22:37:33.821Z,46.30
2022-11-25T22:40:05.521Z,44.80
2022-11-25T22:42:36.941Z,46.10
2022-11-25T22:45:18.823Z,46.30
2022-11-25T22:47:50.364Z,45.30
2022-11-25T22:50:25.498Z,46.60
2022-11-25T22:55:29.473Z,44.10
2022-11-25T22:58:04.167Z,48.40
2022-11-25T23:00:40.996Z,47.80
2022-11-25T23:03:19.661Z,48.90
2022-11-25T23:05:52.479Z,43.80
2022-11-25T23:08:25.054Z,45.60
2022-11-25T23:10:57.085Z,49.50
2022-11-25T23:13:29.072Z,46.50
2022-11-25T23:16:02.177Z,50.90
2022-11-25T23:18:38.584Z,49.50
2022-11-25T23:21:18.168Z,47.00
2022-11-25T23:23:49.829Z,45.80
2022-11-25T23:29:09.525Z,44.60
2022-11-25T23:31:41.811Z,45.80
2022-11-25T23:34:14.771Z,47.50
2022-11-25T23:36:49.238Z,45.60
2022-11-25T23:39:23.468Z,47.00
2022-11-25T23:41:55.271Z,45.50
2022-11-25T23:44:28.856Z,45.20
2022-11-25T23:47:03.207Z,46.50
2022-11-25T23:49:38.162Z,49.10
2022-11-25T23:52:14.168Z,47.20
2022-11-25T23:54:47.653Z,45.30
2022-11-25T23:57:19.917Z,48.10
2022-11-25T23:59:51.692Z,48.70
